createdAt,value
2023-01-02T00:01:00.092Z,70.34
2023-01-02T00:03:28.265Z,70.28
2023-01-02T00:05:56.412Z,70.29
2023-01-02T00:08:24.123Z,70.20
2023-01-02T00:10:53.191Z,69.89
2023-01-02T00:13:21.336Z,69.20
2023-01-02T00:15:49.499Z,69.62
2023-01-02T00:18:17.285Z,70.03
2023-01-02T00:20:44.934Z,69.84
2023-01-02T00:23:12.635Z,69.52
2023-01-02T00:25:40.276Z,69.25
2023-01-02T00:28:08.283Z,69.55
2023-01-02T00:30:38.573Z,69.63
2023-01-02T00:33:06.558Z,69.68
2023-01-02T00:35:34.541Z,69.11
2023-01-02T00:38:02.250Z,69.16
2023-01-02T00:40:30.277Z,68.32
2023-01-02T00:42:57.932Z,68.20
2023-01-02T00:45:25.629Z,68.25
2023-01-02T00:47:53.253Z,67.62
2023-01-02T00:50:20.863Z,67.00
2023-01-02T00:52:48.525Z,66.80
2023-01-02T00:55:16.118Z,66.85
2023-01-02T00:57:44.261Z,67.15
2023-01-02T01:00:11.944Z,67.17
2023-01-02T01:02:39.685Z,67.64
2023-01-02T01:05:07.803Z,67.45
2023-01-02T01:07:35.678Z,68.41
2023-01-02T01:10:03.271Z,67.91
2023-01-02T01:12:30.897Z,68.62
2023-01-02T01:14:58.563Z,68.59
2023-01-02T01:17:26.602Z,68.69
2023-01-02T01:19:54.216Z,69.00
2023-01-02T01:22:21.909Z,69.25
2023-01-02T01:24:49.601Z,69.23
2023-01-02T01:27:17.245Z,68.87
2023-01-02T01:29:45.190Z,68.82
2023-01-02T01:32:12.984Z,68.55
2023-01-02T01:34:40.637Z,69.10
2023-01-02T01:37:08.300Z,68.60
2023-01-02T01:39:35.916Z,68.99
2023-01-02T01:42:04.265Z,68.53
2023-01-02T01:44:31.969Z,68.64
2023-01-02T01:46:59.602Z,68.30
2023-01-02T01:49:27.243Z,68.54
2023-01-02T01:51:54.913Z,68.90
2023-01-02T01:54:22.898Z,68.60
2023-01-02T01:56:50.709Z,68.77
2023-01-02T01:59:18.344Z,68.58
2023-01-02T02:01:46.075Z,68.52
2023-01-02T02:04:14.103Z,68.56
2023-01-02T02:06:42.072Z,68.44
2023-01-02T02:09:09.865Z,68.44
2023-01-02T02:11:37.463Z,68.90
2023-01-02T02:14:05.058Z,67.83
2023-01-02T02:16:32.657Z,68.80
2023-01-02T02:19:00.630Z,69.49
2023-01-02T02:21:28.300Z,70.16
2023-01-02T02:23:55.902Z,70.33
2023-01-02T02:26:23.793Z,71.11
2023-01-02T02:28:51.463Z,70.60
2023-01-02T02:31:19.473Z,70.80
2023-01-02T02:33:47.115Z,70.10
2023-01-02T02:36:14.776Z,70.22
2023-01-02T02:38:42.340Z,70.03
2023-01-02T02:41:09.916Z,69.89
2023-01-02T02:43:37.939Z,69.49
2023-01-02T02:46:05.800Z,69.69
2023-01-02T02:48:33.450Z,68.61
2023-01-02T02:51:01.066Z,68.72
2023-01-02T02:53:28.622Z,68.39
2023-01-02T02:55:56.596Z,68.48
2023-01-02T02:58:24.421Z,68.68
2023-01-02T03:00:52.071Z,68.46
2023-01-02T03:03:19.767Z,68.60
2023-01-02T03:05:47.382Z,68.47
2023-01-02T03:08:15.631Z,68.63
2023-01-02T03:10:43.422Z,68.29
2023-01-02T03:13:11.067Z,68.13
2023-01-02T03:15:38.629Z,67.85
2023-01-02T03:18:06.187Z,68.04
2023-01-02T03:20:34.139Z,68.30
2023-01-02T03:23:01.857Z,67.23
2023-01-02T03:25:29.425Z,67.70
2023-01-02T03:27:57.024Z,68.27
2023-01-02T03:30:24.886Z,68.49
2023-01-02T03:32:53.030Z,68.66
2023-01-02T03:35:20.671Z,69.27
2023-01-02T03:37:48.340Z,70.03
2023-01-02T03:40:15.920Z,69.50
2023-01-02T03:42:43.553Z,70.06
2023-01-02T03:45:11.527Z,70.60
2023-01-02T03:47:39.138Z,70.41
2023-01-02T03:50:06.735Z,70.30
2023-01-02T03:52:34.332Z,70.12
2023-01-02T03:55:01.928Z,70.01
2023-01-02T03:57:29.925Z,69.59
2023-01-02T03:59:57.502Z,69.65
2023-01-02T04:02:25.197Z,69.26
2023-01-02T04:04:52.939Z,69.12
2023-01-02T04:07:20.507Z,69.32
2023-01-02T04:09:48.508Z,69.78
2023-01-02T04:12:16.296Z,69.35
2023-01-02T04:14:43.856Z,69.32
2023-01-02T04:17:11.440Z,69.29
2023-01-02T04:19:39.047Z,68.70
2023-01-02T04:22:06.604Z,68.72
2023-01-02T04:24:34.204Z,69.37
2023-01-02T04:27:01.855Z,69.77
2023-01-02T04:29:29.435Z,70.08
2023-01-02T04:31:57.003Z,70.11
2023-01-02T04:34:25.251Z,70.97
2023-01-02T04:36:53.064Z,71.18
2023-01-02T04:39:20.622Z,71.44
2023-01-02T04:41:48.230Z,71.53
2023-01-02T04:44:15.825Z,71.82
2023-01-02T04:46:43.819Z,71.89
2023-01-02T04:49:11.478Z,72.20
2023-01-02T04:51:39.107Z,72.23
2023-01-02T04:54:06.669Z,72.90
2023-01-02T04:56:34.664Z,73.07
2023-01-02T04:59:02.695Z,73.16
2023-01-02T05:01:30.594Z,73.60
2023-01-02T05:03:58.395Z,73.80
2023-01-02T05:06:25.999Z,73.25
2023-01-02T05:08:53.588Z,73.39
2023-01-02T05:11:21.563Z,73.13
2023-01-02T05:13:49.303Z,73.21
2023-01-02T05:16:16.938Z,73.42
2023-01-02T05:18:44.574Z,72.97
2023-01-02T05:21:33.190Z,73.39
2023-01-02T05:23:59.747Z,73.33
2023-01-02T05:26:27.493Z,72.49
2023-01-02T05:28:55.068Z,72.51
2023-01-02T05:31:22.746Z,72.40
2023-01-02T05:33:50.741Z,72.34
2023-01-02T05:36:18.338Z,71.93
2023-01-02T05:38:46.848Z,72.67
2023-01-02T05:41:15.151Z,72.11
2023-01-02T05:43:42.692Z,72.82
2023-01-02T05:46:10.754Z,72.83
2023-01-02T05:48:38.363Z,72.54
2023-01-02T05:51:06.104Z,71.68
2023-01-02T05:53:33.692Z,71.62
2023-01-02T05:56:01.269Z,71.28
2023-01-02T05:58:29.195Z,71.75
2023-01-02T06:00:57.084Z,70.68
2023-01-02T06:03:24.985Z,70.85
2023-01-02T06:05:52.626Z,70.49
2023-01-02T06:08:20.283Z,70.89
2023-01-02T06:10:48.239Z,70.27
2023-01-02T06:13:15.812Z,69.83
2023-01-02T06:15:43.675Z,70.33
2023-01-02T06:18:11.259Z,70.62
2023-01-02T06:20:38.844Z,70.07
2023-01-02T06:23:07.109Z,69.97
2023-01-02T06:25:34.714Z,70.42
2023-01-02T06:28:02.380Z,70.36
2023-01-02T06:30:30.000Z,70.59
2023-01-02T06:32:57.625Z,70.44
2023-01-02T06:35:25.592Z,70.80
2023-01-02T06:37:53.230Z,70.33
2023-01-02T06:40:20.827Z,70.49
2023-01-02T06:42:48.381Z,70.95
2023-01-02T06:45:16.296Z,70.65
2023-01-02T06:47:44.243Z,70.88
2023-01-02T06:50:11.971Z,70.68
2023-01-02T06:52:39.614Z,70.23
2023-01-02T06:55:07.184Z,69.97
2023-01-02T06:57:34.939Z,70.22
2023-01-02T07:00:02.914Z,69.92
2023-01-02T07:02:30.584Z,70.13
2023-01-02T07:04:58.438Z,70.44
2023-01-02T07:07:26.481Z,70.02
2023-01-02T07:09:54.075Z,69.91
2023-01-02T07:12:22.080Z,69.49
2023-01-02T07:14:49.738Z,69.42
2023-01-02T07:17:17.579Z,69.72
2023-01-02T07:19:51.451Z,69.60
2023-01-02T07:22:21.076Z,69.99
2023-01-02T07:24:49.033Z,69.64
2023-01-02T07:27:16.658Z,69.45
2023-01-02T07:29:45.296Z,70.07
2023-01-02T07:32:12.980Z,69.70
2023-01-02T07:34:40.616Z,69.27
2023-01-02T07:37:08.667Z,69.70
2023-01-02T07:39:36.272Z,69.44
2023-01-02T07:42:04.084Z,69.84
2023-01-02T07:44:31.818Z,69.90
2023-01-02T07:46:59.413Z,69.57
2023-01-02T07:49:27.419Z,70.05
2023-01-02T07:51:55.402Z,69.99
2023-01-02T07:54:23.089Z,70.41
2023-01-02T07:56:50.756Z,70.16
2023-01-02T07:59:18.467Z,70.17
2023-01-02T08:01:46.537Z,70.11
2023-01-02T08:04:14.314Z,70.74
2023-01-02T08:06:42.400Z,70.51
2023-01-02T08:09:10.053Z,70.82
2023-01-02T08:11:37.685Z,71.15
2023-01-02T08:14:06.026Z,71.18
2023-01-02T08:16:33.710Z,71.84
2023-01-02T08:19:01.603Z,72.15
2023-01-02T08:21:29.389Z,72.65
2023-01-02T08:23:57.032Z,73.02
2023-01-02T08:26:26.065Z,73.60
2023-01-02T08:28:53.732Z,73.75
2023-01-02T08:31:21.719Z,73.90
2023-01-02T08:33:49.442Z,73.95
2023-01-02T08:36:17.430Z,74.27
2023-01-02T08:38:45.123Z,73.99
2023-01-02T08:41:12.881Z,74.44
2023-01-02T08:43:41.698Z,74.76
2023-01-02T08:46:09.497Z,74.87
2023-01-02T08:48:37.326Z,75.45
2023-01-02T08:51:05.145Z,75.80
2023-01-02T08:53:32.839Z,75.51
2023-01-02T08:56:00.587Z,76.21
2023-01-02T08:58:29.081Z,76.27
2023-01-02T09:00:56.840Z,76.17
2023-01-02T09:03:25.085Z,76.35
2023-01-02T09:05:53.506Z,76.80
2023-01-02T09:08:21.544Z,76.48
2023-01-02T09:10:49.451Z,76.74
2023-01-02T09:13:17.410Z,76.92
2023-01-02T09:15:46.003Z,77.05
2023-01-02T09:18:13.993Z,77.40
2023-01-02T09:20:42.192Z,77.37
2023-01-02T09:23:09.922Z,77.74
2023-01-02T09:25:37.625Z,77.63
2023-01-02T09:28:05.854Z,77.41
2023-01-02T09:30:33.683Z,77.49
2023-01-02T09:33:01.552Z,77.48
2023-01-02T09:35:29.537Z,78.27
2023-01-02T09:37:57.433Z,77.93
2023-01-02T09:40:25.792Z,77.89
2023-01-02T09:42:54.106Z,77.32
2023-01-02T09:45:22.169Z,77.54
2023-01-02T09:47:50.104Z,77.11
2023-01-02T09:50:18.282Z,77.42
2023-01-02T09:52:46.651Z,76.39
2023-01-02T09:55:14.982Z,76.93
2023-01-02T09:57:43.306Z,76.62
2023-01-02T10:00:11.174Z,77.68
2023-01-02T10:02:39.035Z,77.53
2023-01-02T10:05:07.664Z,78.04
2023-01-02T10:07:35.466Z,78.25
2023-01-02T10:10:03.529Z,78.16
2023-01-02T10:12:31.666Z,78.66
2023-01-02T10:14:59.578Z,78.66
2023-01-02T10:17:27.834Z,78.45
2023-01-02T10:19:55.779Z,78.48
2023-01-02T10:22:23.813Z,78.21
2023-01-02T10:24:51.790Z,78.13
2023-01-02T10:27:20.278Z,77.98
2023-01-02T10:29:48.671Z,77.91
2023-01-02T10:32:16.445Z,77.51
2023-01-02T10:34:44.605Z,77.39
2023-01-02T10:37:12.382Z,76.99
2023-01-02T10:39:40.383Z,77.61
2023-01-02T10:42:09.079Z,77.96
2023-01-02T10:44:36.902Z,78.24
2023-01-02T10:47:05.371Z,78.34
2023-01-02T10:49:35.088Z,78.53
2023-01-02T10:52:02.858Z,78.01
2023-01-02T10:54:31.261Z,78.32
2023-01-02T10:56:59.142Z,78.15
2023-01-02T10:59:27.236Z,78.15
2023-01-02T11:01:55.225Z,78.06
2023-01-02T11:04:23.234Z,77.72
2023-01-02T11:06:51.703Z,77.93
2023-01-02T11:09:19.694Z,77.67
2023-01-02T11:11:48.784Z,77.95
2023-01-02T11:14:16.619Z,78.25
2023-01-02T11:16:44.469Z,78.02
2023-01-02T11:19:12.937Z,77.74
2023-01-02T11:21:40.660Z,78.05
2023-01-02T11:24:08.687Z,77.72
2023-01-02T11:26:36.820Z,77.80
2023-01-02T11:29:04.658Z,78.45
2023-01-02T11:31:33.187Z,78.49
2023-01-02T11:34:01.448Z,78.74
2023-01-02T11:36:29.814Z,78.94
2023-01-02T11:38:57.928Z,78.37
2023-01-02T11:41:25.969Z,78.73
2023-01-02T11:43:53.404Z,78.98
2023-01-02T11:46:21.236Z,79.06
2023-01-02T11:48:49.563Z,78.54
2023-01-02T11:51:17.792Z,78.72
2023-01-02T11:53:48.207Z,78.34
2023-01-02T11:56:16.944Z,78.24
2023-01-02T11:58:44.720Z,78.11
2023-01-02T12:01:12.946Z,78.01
2023-01-02T12:03:41.044Z,78.03
2023-01-02T12:06:09.310Z,77.60
2023-01-02T12:08:43.234Z,77.63
2023-01-02T12:11:14.267Z,76.95
2023-01-02T12:13:42.114Z,77.52
2023-01-02T12:16:10.004Z,77.09
2023-01-02T12:18:38.390Z,76.93
2023-01-02T12:21:06.273Z,77.36
2023-01-02T12:23:34.430Z,77.26
2023-01-02T12:26:07.307Z,77.15
2023-01-02T12:28:36.925Z,77.82
2023-01-02T12:31:04.955Z,77.31
2023-01-02T12:33:32.775Z,77.61
2023-01-02T12:36:00.906Z,77.36
2023-01-02T12:38:33.351Z,77.10
2023-01-02T12:41:01.549Z,77.16
2023-01-02T12:43:29.903Z,76.61
2023-01-02T12:45:57.718Z,76.16
2023-01-02T12:48:25.919Z,76.69
2023-01-02T12:50:53.932Z,76.17
2023-01-02T12:53:21.809Z,76.47
2023-01-02T12:55:49.906Z,76.82
2023-01-02T12:58:17.891Z,76.45
2023-01-02T13:00:47.222Z,76.72
2023-01-02T13:03:21.757Z,76.36
2023-01-02T13:05:50.833Z,76.71
2023-01-02T13:08:18.644Z,76.96
2023-01-02T13:10:46.630Z,76.75
2023-01-02T13:13:14.737Z,77.53
2023-01-02T13:15:42.634Z,77.24
2023-01-02T13:18:11.022Z,77.65
2023-01-02T13:20:39.041Z,78.33
2023-01-02T13:23:07.139Z,78.45
2023-01-02T13:25:34.920Z,79.06
2023-01-02T13:28:06.280Z,78.85
2023-01-02T13:30:34.578Z,79.34
2023-01-02T13:33:02.491Z,79.24
2023-01-02T13:35:30.662Z,79.31
2023-01-02T13:37:58.560Z,79.24
2023-01-02T13:40:26.342Z,79.86
2023-01-02T13:43:01.180Z,79.91
2023-01-02T13:45:30.678Z,79.63
2023-01-02T13:47:58.953Z,79.68
2023-01-02T13:50:26.955Z,78.95
2023-01-02T13:52:54.773Z,79.68
2023-01-02T13:55:22.544Z,79.43
2023-01-02T13:57:50.390Z,78.89
2023-01-02T14:00:18.326Z,79.08
2023-01-02T14:02:46.395Z,79.36
2023-01-02T14:05:14.721Z,78.96
2023-01-02T14:07:42.908Z,78.72
2023-01-02T14:10:10.991Z,78.35
2023-01-02T14:12:39.378Z,78.24
2023-01-02T14:15:07.227Z,78.21
2023-01-02T14:17:35.056Z,78.31
2023-01-02T14:20:03.127Z,78.33
2023-01-02T14:22:33.194Z,78.86
2023-01-02T14:25:01.204Z,78.25
2023-01-02T14:27:29.481Z,78.38
2023-01-02T14:29:57.393Z,78.17
2023-01-02T14:32:25.659Z,78.43
2023-01-02T14:34:53.854Z,78.03
2023-01-02T14:37:22.319Z,78.43
2023-01-02T14:39:50.123Z,78.48
2023-01-02T14:42:47.530Z,78.63
2023-01-02T14:45:15.597Z,78.68
2023-01-02T14:47:43.672Z,78.40
2023-01-02T14:50:11.685Z,78.32
2023-01-02T14:52:39.549Z,78.29
2023-01-02T14:55:07.681Z,78.67
2023-01-02T14:57:35.646Z,78.80
2023-01-02T15:00:04.281Z,78.49
2023-01-02T15:02:32.346Z,79.03
2023-01-02T15:05:06.556Z,78.98
2023-01-02T15:07:35.144Z,78.57
2023-01-02T15:10:04.390Z,78.49
2023-01-02T15:12:49.815Z,79.01
2023-01-02T15:15:18.056Z,78.82
2023-01-02T15:17:46.590Z,78.73
2023-01-02T15:20:14.756Z,79.20
2023-01-02T15:22:43.457Z,79.21
2023-01-02T15:25:11.337Z,79.27
2023-01-02T15:27:40.234Z,79.48
2023-01-02T15:30:09.201Z,79.27
2023-01-02T15:32:37.242Z,80.02
2023-01-02T15:35:05.244Z,80.04
2023-01-02T15:37:33.051Z,80.41
2023-01-02T15:40:01.197Z,79.64
2023-01-02T15:42:46.984Z,80.07
2023-01-02T15:45:15.500Z,80.18
2023-01-02T15:47:43.256Z,79.58
2023-01-02T15:50:11.449Z,80.08
2023-01-02T15:52:39.248Z,79.63
2023-01-02T15:55:07.556Z,80.07
2023-01-02T15:57:35.577Z,79.93
2023-01-02T16:00:03.470Z,79.55
2023-01-02T16:02:31.690Z,79.94
2023-01-02T16:04:59.851Z,79.82
2023-01-02T16:07:28.420Z,79.65
2023-01-02T16:09:56.313Z,80.24
2023-01-02T16:12:24.510Z,79.84
2023-01-02T16:14:53.265Z,80.13
2023-01-02T16:17:21.143Z,80.06
2023-01-02T16:19:54.685Z,80.15
2023-01-02T16:22:26.007Z,79.93
2023-01-02T16:24:54.421Z,80.31
2023-01-02T16:27:22.372Z,80.12
2023-01-02T16:29:50.560Z,80.64
2023-01-02T16:32:18.678Z,80.44
2023-01-02T16:34:46.618Z,80.17
2023-01-02T16:37:14.589Z,80.34
2023-01-02T16:39:42.771Z,80.28
2023-01-02T16:42:28.535Z,80.16
2023-01-02T16:44:56.798Z,80.52
2023-01-02T16:47:25.080Z,80.70
2023-01-02T16:49:53.088Z,80.83
2023-01-02T16:52:21.016Z,80.25
2023-01-02T16:54:54.129Z,80.31
2023-01-02T16:57:22.513Z,80.52
2023-01-02T16:59:50.838Z,80.36
2023-01-02T17:02:18.812Z,80.78
2023-01-02T17:04:46.734Z,80.63
2023-01-02T17:07:21.739Z,80.58
2023-01-02T17:09:50.134Z,81.00
2023-01-02T17:12:18.236Z,80.28
2023-01-02T17:14:46.058Z,80.83
2023-01-02T17:17:14.231Z,80.49
2023-01-02T17:19:42.721Z,80.80
2023-01-02T17:22:10.852Z,80.48
2023-01-02T17:24:38.777Z,80.53
2023-01-02T17:27:06.583Z,80.79
2023-01-02T17:29:34.313Z,80.93
2023-01-02T17:32:02.397Z,81.03
2023-01-02T17:34:30.567Z,80.74
2023-01-02T17:36:58.829Z,80.87
2023-01-02T17:39:26.919Z,80.69
2023-01-02T17:41:54.797Z,80.79
2023-01-02T17:44:22.913Z,81.46
2023-01-02T17:47:38.769Z,81.60
2023-01-02T17:49:39.494Z,81.56
2023-01-02T17:52:07.275Z,81.62
2023-01-02T17:54:35.994Z,82.13
2023-01-02T17:57:03.873Z,82.32
2023-01-02T17:59:31.783Z,82.22
2023-01-02T18:01:59.737Z,82.09
2023-01-02T18:04:28.096Z,82.24
2023-01-02T18:06:56.586Z,82.83
2023-01-02T18:09:24.422Z,82.38
2023-01-02T18:11:52.343Z,82.20
2023-01-02T18:14:20.670Z,82.52
2023-01-02T18:16:48.469Z,82.54
2023-01-02T18:19:17.079Z,82.54
2023-01-02T18:21:45.021Z,82.26
2023-01-02T18:24:12.918Z,82.46
2023-01-02T18:26:41.099Z,82.83
2023-01-02T18:29:10.119Z,82.74
2023-01-02T18:31:38.700Z,82.36
2023-01-02T18:34:06.481Z,82.30
2023-01-02T18:36:35.043Z,82.42
2023-01-02T18:39:03.304Z,82.32
2023-01-02T18:41:31.223Z,82.41
2023-01-02T18:44:00.514Z,82.07
2023-01-02T18:47:03.722Z,81.67
2023-01-02T18:49:16.410Z,81.43
2023-01-02T18:51:44.762Z,81.86
2023-01-02T18:54:13.207Z,81.99
2023-01-02T18:56:41.608Z,81.30
2023-01-02T18:59:09.581Z,81.30
2023-01-02T19:01:37.716Z,81.28
2023-01-02T19:04:10.462Z,81.14
2023-01-02T19:06:45.902Z,81.65
2023-01-02T19:09:13.843Z,81.32
2023-01-02T19:11:59.177Z,81.21
2023-01-02T19:14:27.083Z,81.18
2023-01-02T19:16:55.714Z,81.25
2023-01-02T19:19:23.783Z,81.68
2023-01-02T19:21:51.836Z,81.36
2023-01-02T19:24:20.166Z,81.74
2023-01-02T19:26:48.554Z,81.51
2023-01-02T19:29:18.250Z,81.40
2023-01-02T19:31:46.190Z,81.47
2023-01-02T19:34:14.182Z,81.60
2023-01-02T19:36:42.188Z,81.94
2023-01-02T19:39:11.063Z,81.45
2023-01-02T19:41:56.791Z,81.61
2023-01-02T19:44:24.595Z,81.14
2023-01-02T19:46:52.410Z,81.37
2023-01-02T19:49:20.398Z,81.16
2023-01-02T19:51:48.437Z,81.16
2023-01-02T19:54:16.650Z,80.75
2023-01-02T19:56:44.630Z,80.88
2023-01-02T19:59:13.097Z,80.95
2023-01-02T20:01:41.268Z,80.65
2023-01-02T20:04:09.436Z,81.27
2023-01-02T20:06:37.414Z,81.00
2023-01-02T20:09:05.160Z,80.94
2023-01-02T20:11:50.522Z,80.93
2023-01-02T20:14:18.759Z,80.62
2023-01-02T20:16:47.076Z,80.86
2023-01-02T20:19:15.298Z,80.83
2023-01-02T20:21:43.189Z,80.60
2023-01-02T20:24:11.047Z,80.51
2023-01-02T20:26:39.542Z,80.54
2023-01-02T20:29:08.017Z,80.54
2023-01-02T20:31:35.872Z,80.18
2023-01-02T20:34:04.579Z,80.25
2023-01-02T20:36:32.423Z,80.58
2023-01-02T20:39:00.779Z,80.25
2023-01-02T20:41:29.494Z,80.44
2023-01-02T20:43:57.454Z,80.62
2023-01-02T20:46:25.310Z,80.38
2023-01-02T20:48:53.386Z,80.37
2023-01-02T20:51:21.501Z,80.05
2023-01-02T20:53:50.044Z,80.55
2023-01-02T20:56:18.103Z,80.34
2023-01-02T20:58:46.164Z,80.61
2023-01-02T21:01:14.155Z,80.49
2023-01-02T21:03:43.241Z,80.26
2023-01-02T21:06:11.544Z,80.68
2023-01-02T21:08:39.542Z,80.21
2023-01-02T21:11:07.469Z,80.80
2023-01-02T21:13:35.405Z,80.45
2023-01-02T21:16:03.358Z,80.23
2023-01-02T21:18:31.925Z,80.21
2023-01-02T21:20:59.696Z,80.53
2023-01-02T21:23:27.698Z,80.29
2023-01-02T21:25:55.956Z,80.26
2023-01-02T21:28:23.834Z,80.20
2023-01-02T21:30:52.342Z,80.36
2023-01-02T21:33:20.176Z,80.68
2023-01-02T21:35:48.495Z,80.45
2023-01-02T21:38:16.364Z,80.32
2023-01-02T21:40:44.294Z,80.52
2023-01-02T21:43:12.628Z,80.41
2023-01-02T21:45:40.707Z,80.30
2023-01-02T21:48:08.626Z,79.74
2023-01-02T21:50:36.478Z,80.04
2023-01-02T21:53:04.396Z,80.33
2023-01-02T21:55:32.300Z,79.75
2023-01-02T21:58:12.776Z,79.90
2023-01-02T22:00:41.720Z,80.15
2023-01-02T22:03:09.881Z,80.22
2023-01-02T22:05:38.071Z,80.42
2023-01-02T22:08:06.173Z,80.67
2023-01-02T22:10:34.025Z,80.44
2023-01-02T22:13:02.024Z,80.71
2023-01-02T22:15:30.399Z,80.59
2023-01-02T22:17:58.665Z,80.97
2023-01-02T22:20:26.600Z,81.09
2023-01-02T22:22:54.561Z,80.74
2023-01-02T22:25:23.580Z,81.25
2023-01-02T22:27:51.798Z,80.83
2023-01-02T22:30:25.740Z,81.04
2023-01-02T22:32:59.267Z,81.26
2023-01-02T22:35:27.267Z,81.17
2023-01-02T22:37:55.533Z,81.22
2023-01-02T22:40:23.590Z,81.51
2023-01-02T22:43:02.863Z,81.34
2023-01-02T22:45:31.992Z,81.74
2023-01-02T22:48:00.158Z,81.20
2023-01-02T22:50:28.557Z,81.43
2023-01-02T22:52:56.372Z,81.51
2023-01-02T22:55:24.271Z,81.14
2023-01-02T22:57:52.175Z,80.95
2023-01-02T23:00:20.098Z,81.29
2023-01-02T23:02:50.138Z,81.21
2023-01-02T23:05:17.980Z,80.71
2023-01-02T23:07:45.907Z,81.06
2023-01-02T23:10:13.752Z,81.59
2023-01-02T23:12:42.625Z,81.32
2023-01-02T23:15:10.781Z,81.58
2023-01-02T23:17:56.136Z,81.76
2023-01-02T23:20:23.962Z,81.72
2023-01-02T23:22:51.970Z,81.96
2023-01-02T23:25:20.001Z,81.74
2023-01-02T23:27:47.805Z,81.90
2023-01-02T23:30:15.671Z,81.92
2023-01-02T23:32:43.920Z,82.02
2023-01-02T23:35:11.846Z,81.57
2023-01-02T23:37:40.000Z,81.42
2023-01-02T23:40:08.034Z,81.40
2023-01-02T23:42:35.799Z,81.37
2023-01-02T23:45:03.542Z,80.98
2023-01-02T23:47:31.441Z,81.11
2023-01-02T23:49:59.626Z,80.99
2023-01-02T23:52:27.496Z,80.79
2023-01-02T23:54:55.648Z,81.18
2023-01-02T23:57:23.480Z,81.53
2023-01-02T23:59:51.467Z,81.03
